createdAt,value
2019-04-14T00:00:51.854Z,3.33
2019-04-14T00:03:21.724Z,3.22
2019-04-14T00:05:51.724Z,3.22
2019-04-14T00:08:19.898Z,3.29
2019-04-14T00:10:48.636Z,3.24
2019-04-14T00:13:17.480Z,3.23
2019-04-14T00:15:48.780Z,3.21
2019-04-14T00:18:16.453Z,3.21
2019-04-14T00:20:44.845Z,3.11
2019-04-14T00:23:13.286Z,3.11
2019-04-14T00:25:41.528Z,3.23
2019-04-14T00:28:09.755Z,3.13
2019-04-14T00:30:38.297Z,3.12
2019-04-14T00:33:10.821Z,3.12
2019-04-14T00:35:40.703Z,3.24
2019-04-14T00:38:17.445Z,3.30
2019-04-14T00:40:47.698Z,3.30
2019-04-14T00:43:24.465Z,3.34
2019-04-14T00:45:57.677Z,3.39
2019-04-14T00:48:25.965Z,3.41
2019-04-14T00:50:54.153Z,3.46
2019-04-14T00:53:22.912Z,3.46
2019-04-14T00:55:51.174Z,3.46
2019-04-14T00:58:19.589Z,3.45
2019-04-14T01:00:48.052Z,3.46
2019-04-14T01:03:17.532Z,3.47
2019-04-14T01:05:46.013Z,3.47
2019-04-14T01:08:14.226Z,3.46
2019-04-14T01:10:43.279Z,3.44
2019-04-14T01:13:12.724Z,3.44
2019-04-14T01:15:51.298Z,3.39
2019-04-14T01:18:12.553Z,3.30
2019-04-14T01:20:41.011Z,3.30
2019-04-14T01:23:10.560Z,3.30
2019-04-14T01:25:38.994Z,3.28
2019-04-14T01:28:08.871Z,3.31
2019-04-14T01:30:37.377Z,3.32
2019-04-14T01:33:05.839Z,3.32
2019-04-14T01:35:34.319Z,3.30
2019-04-14T01:38:03.694Z,3.30
2019-04-14T01:40:32.022Z,3.18
2019-04-14T01:43:01.592Z,3.10
2019-04-14T01:45:29.866Z,3.22
2019-04-14T01:47:58.101Z,3.22
2019-04-14T01:50:27.968Z,3.22
2019-04-14T01:53:03.908Z,3.06
2019-04-14T01:55:37.352Z,3.06
2019-04-14T01:58:07.862Z,3.23
2019-04-14T02:00:46.901Z,3.23
2019-04-14T02:03:15.129Z,3.28
2019-04-14T02:05:43.359Z,3.28
2019-04-14T02:08:11.599Z,3.30
2019-04-14T02:10:39.821Z,3.30
2019-04-14T02:13:09.311Z,3.23
2019-04-14T02:15:37.484Z,3.23
2019-04-14T02:18:05.795Z,3.38
2019-04-14T02:20:34.000Z,3.38
2019-04-14T02:23:02.193Z,3.41
2019-04-14T02:25:31.671Z,3.45
2019-04-14T02:28:00.153Z,3.45
2019-04-14T02:30:36.602Z,3.43
2019-04-14T02:33:32.183Z,3.45
2019-04-14T02:36:09.902Z,3.34
2019-04-14T02:38:34.091Z,3.34
2019-04-14T02:41:02.445Z,3.34
2019-04-14T02:43:33.352Z,3.44
2019-04-14T02:48:44.225Z,3.47
2019-04-14T02:50:56.169Z,3.47
2019-04-14T02:53:27.147Z,3.45
2019-04-14T02:55:59.800Z,3.45
2019-04-14T02:58:30.534Z,3.44
2019-04-14T03:00:58.316Z,3.44
2019-04-14T03:06:10.388Z,3.29
2019-04-14T03:08:26.048Z,3.47
2019-04-14T03:10:55.712Z,3.47
2019-04-14T03:21:19.994Z,3.47
2019-04-14T03:24:06.590Z,3.37
2019-04-14T03:26:38.236Z,3.35
2019-04-14T03:29:05.405Z,3.32
2019-04-14T03:34:23.540Z,3.30
2019-04-14T03:39:06.108Z,3.36
2019-04-14T03:41:41.228Z,3.36
2019-04-14T03:44:11.773Z,3.35
2019-04-14T03:46:45.312Z,3.22
2019-04-14T03:51:44.578Z,3.19
2019-04-14T03:54:03.431Z,3.26
2019-04-14T03:56:18.031Z,3.26
2019-04-14T03:58:46.549Z,3.25
2019-04-14T04:01:15.113Z,3.25
2019-04-14T04:03:43.605Z,3.17
2019-04-14T04:06:11.847Z,3.22
2019-04-14T04:08:40.000Z,3.28
2019-04-14T04:11:08.468Z,3.28
2019-04-14T04:13:36.857Z,3.33
2019-04-14T04:16:15.903Z,3.33
2019-04-14T04:18:55.761Z,3.33
2019-04-14T04:21:22.722Z,3.31
2019-04-14T04:23:53.287Z,3.24
2019-04-14T04:26:32.223Z,3.36
2019-04-14T04:29:04.889Z,3.34
2019-04-14T04:31:37.645Z,3.27
2019-04-14T04:34:16.293Z,3.32
2019-04-14T04:37:03.867Z,3.34
2019-04-14T04:39:38.054Z,3.35
2019-04-14T04:42:07.007Z,3.32
2019-04-14T04:44:35.636Z,3.31
2019-04-14T04:47:03.833Z,3.31
2019-04-14T04:49:32.906Z,3.32
2019-04-14T04:52:02.255Z,3.34
2019-04-14T04:54:30.488Z,3.33
2019-04-14T04:56:58.710Z,3.22
2019-04-14T04:59:27.785Z,3.22
2019-04-14T05:01:56.048Z,3.30
2019-04-14T05:04:24.406Z,3.30
2019-04-14T05:07:01.929Z,3.32
2019-04-14T05:09:38.767Z,3.32
2019-04-14T05:12:09.151Z,3.24
2019-04-14T05:14:43.376Z,3.24
2019-04-14T05:17:12.610Z,3.32
2019-04-14T05:19:42.017Z,3.32
2019-04-14T05:22:11.315Z,3.36
2019-04-14T05:24:39.736Z,3.36
2019-04-14T05:27:07.932Z,3.41
2019-04-14T05:29:36.543Z,3.44
2019-04-14T05:32:04.834Z,3.47
2019-04-14T05:34:33.066Z,3.49
2019-04-14T05:37:01.296Z,3.52
2019-04-14T05:39:30.781Z,3.61
2019-04-14T05:42:07.531Z,3.61
2019-04-14T05:44:29.670Z,3.65
2019-04-14T05:46:57.955Z,3.65
2019-04-14T05:49:34.831Z,3.79
2019-04-14T05:51:56.620Z,3.85
2019-04-14T05:54:25.246Z,3.90
2019-04-14T05:56:53.752Z,3.93
2019-04-14T05:59:22.025Z,3.98
2019-04-14T06:01:51.081Z,3.98
2019-04-14T06:04:20.038Z,3.99
2019-04-14T06:06:48.212Z,4.01
2019-04-14T06:09:16.666Z,3.98
2019-04-14T06:11:44.905Z,4.01
2019-04-14T06:14:13.130Z,4.02
2019-04-14T06:16:41.362Z,4.04
2019-04-14T06:19:09.586Z,4.06
2019-04-14T06:21:38.047Z,4.06
2019-04-14T06:24:06.276Z,4.10
2019-04-14T06:26:34.508Z,4.14
2019-04-14T06:29:02.732Z,4.20
2019-04-14T06:31:48.638Z,4.28
2019-04-14T06:34:18.719Z,4.34
2019-04-14T06:37:03.615Z,4.41
2019-04-14T06:39:33.511Z,4.49
2019-04-14T06:42:01.714Z,4.59
2019-04-14T06:44:29.936Z,4.75
2019-04-14T06:46:58.171Z,4.75
2019-04-14T06:49:26.400Z,4.83
2019-04-14T06:51:54.854Z,4.89
2019-04-14T06:54:23.302Z,4.95
2019-04-14T06:56:51.542Z,5.02
2019-04-14T06:59:19.771Z,5.06
2019-04-14T07:01:48.004Z,5.10
2019-04-14T07:04:16.448Z,5.14
2019-04-14T07:06:44.692Z,5.20
2019-04-14T07:09:13.137Z,5.22
2019-04-14T07:11:41.591Z,5.27
2019-04-14T07:14:09.813Z,5.30
2019-04-14T07:16:38.047Z,5.39
2019-04-14T07:19:06.495Z,5.46
2019-04-14T07:21:34.948Z,5.51
2019-04-14T07:24:03.173Z,5.54
2019-04-14T07:26:31.406Z,5.60
2019-04-14T07:28:59.634Z,5.64
2019-04-14T07:31:45.834Z,5.73
2019-04-14T07:34:24.222Z,5.84
2019-04-14T07:36:56.988Z,6.00
2019-04-14T07:39:41.887Z,6.12
2019-04-14T07:42:11.968Z,6.14
2019-04-14T07:44:57.807Z,6.16
2019-04-14T07:47:27.896Z,6.17
2019-04-14T07:50:14.614Z,6.15
2019-04-14T07:52:54.380Z,6.14
2019-04-14T07:55:36.410Z,6.15
2019-04-14T07:58:11.692Z,6.17
2019-04-14T08:00:41.601Z,6.19
2019-04-14T08:03:11.467Z,6.26
2019-04-14T08:05:41.471Z,6.35
2019-04-14T08:08:09.704Z,6.47
2019-04-14T08:10:37.936Z,6.58
2019-04-14T08:13:06.379Z,6.65
2019-04-14T08:15:34.829Z,6.67
2019-04-14T08:18:03.292Z,6.69
2019-04-14T08:20:31.749Z,6.74
2019-04-14T08:22:59.969Z,6.85
2019-04-14T08:25:28.422Z,6.94
2019-04-14T08:27:56.687Z,7.03
2019-04-14T08:30:25.147Z,7.16
2019-04-14T08:32:53.378Z,7.25
2019-04-14T08:35:21.826Z,7.31
2019-04-14T08:37:50.276Z,7.36
2019-04-14T08:40:18.581Z,7.37
2019-04-14T08:42:51.130Z,7.41
2019-04-14T08:45:32.742Z,7.43
2019-04-14T08:48:05.648Z,7.38
2019-04-14T08:50:39.657Z,7.36
2019-04-14T08:53:22.193Z,7.38
2019-04-14T08:56:09.902Z,7.39
2019-04-14T08:58:39.778Z,7.50
2019-04-14T09:01:09.640Z,7.48
2019-04-14T09:03:45.294Z,7.48
2019-04-14T09:06:15.380Z,7.50
2019-04-14T09:09:00.286Z,7.47
2019-04-14T09:11:32.804Z,7.48
2019-04-14T09:14:01.269Z,7.56
2019-04-14T09:16:29.710Z,7.65
2019-04-14T09:19:07.679Z,7.73
2019-04-14T09:21:27.885Z,7.81
2019-04-14T09:23:56.968Z,7.91
2019-04-14T09:26:25.259Z,8.00
2019-04-14T09:28:53.498Z,8.09
2019-04-14T09:31:21.718Z,8.13
2019-04-14T09:33:49.939Z,8.25
2019-04-14T09:36:18.170Z,8.30
2019-04-14T09:38:46.395Z,8.42
2019-04-14T09:41:14.630Z,8.56
2019-04-14T09:43:42.858Z,8.71
2019-04-14T09:46:11.244Z,8.80
2019-04-14T09:48:39.690Z,8.95
2019-04-14T09:51:07.922Z,9.03
2019-04-14T09:53:36.441Z,9.14
2019-04-14T09:56:04.905Z,9.21
2019-04-14T09:58:33.364Z,9.21
2019-04-14T10:01:01.818Z,9.23
2019-04-14T10:03:30.265Z,9.20
2019-04-14T10:05:58.646Z,9.23
2019-04-14T10:08:26.906Z,9.31
2019-04-14T10:10:55.376Z,9.37
2019-04-14T10:13:23.882Z,9.32
2019-04-14T10:15:52.119Z,9.43
2019-04-14T10:18:20.571Z,9.51
2019-04-14T10:20:49.031Z,9.55
2019-04-14T10:23:17.258Z,9.69
2019-04-14T10:25:45.515Z,9.84
2019-04-14T10:28:13.954Z,9.93
2019-04-14T10:30:42.424Z,10.02
2019-04-14T10:33:10.671Z,10.02
2019-04-14T10:35:38.889Z,9.95
2019-04-14T10:38:07.122Z,9.89
2019-04-14T10:40:35.342Z,9.86
2019-04-14T10:43:03.580Z,9.81
2019-04-14T10:45:31.799Z,9.81
2019-04-14T10:48:00.030Z,9.88
2019-04-14T10:50:31.169Z,9.96
2019-04-14T10:52:58.215Z,10.00
2019-04-14T10:55:26.438Z,9.99
2019-04-14T10:57:54.675Z,10.07
2019-04-14T11:00:22.903Z,10.19
2019-04-14T11:02:51.142Z,10.25
2019-04-14T11:05:19.594Z,10.30
2019-04-14T11:07:47.839Z,10.25
2019-04-14T11:10:16.134Z,10.38
2019-04-14T11:12:44.366Z,10.41
2019-04-14T11:15:15.421Z,10.43
2019-04-14T11:17:42.852Z,10.53
2019-04-14T11:20:11.142Z,10.63
2019-04-14T11:22:39.601Z,10.71
2019-04-14T11:25:08.501Z,10.95
2019-04-14T11:27:36.736Z,11.04
2019-04-14T11:30:08.212Z,10.97
2019-04-14T11:32:43.844Z,10.90
2019-04-14T11:35:16.351Z,10.90
2019-04-14T11:37:48.433Z,10.98
2019-04-14T11:40:18.293Z,11.07
2019-04-14T11:42:52.525Z,11.13
2019-04-14T11:45:16.714Z,11.12
2019-04-14T11:47:44.952Z,11.04
2019-04-14T11:50:13.245Z,10.95
2019-04-14T11:52:41.479Z,10.98
2019-04-14T11:55:09.786Z,11.11
2019-04-14T11:57:38.262Z,11.28
2019-04-14T12:00:25.848Z,11.36
2019-04-14T12:03:11.910Z,11.47
2019-04-14T12:05:57.547Z,11.52
2019-04-14T12:08:27.431Z,11.36
2019-04-14T12:10:55.664Z,11.28
2019-04-14T12:13:23.903Z,11.23
2019-04-14T12:15:52.129Z,11.41
2019-04-14T12:18:20.354Z,11.48
2019-04-14T12:20:48.592Z,11.56
2019-04-14T12:23:17.043Z,11.59
2019-04-14T12:25:45.510Z,11.44
2019-04-14T12:28:13.733Z,11.32
2019-04-14T12:30:42.215Z,11.39
2019-04-14T12:33:10.441Z,11.45
2019-04-14T12:35:38.680Z,11.45
2019-04-14T12:38:07.140Z,11.55
2019-04-14T12:40:35.377Z,11.67
2019-04-14T12:43:05.466Z,11.77
2019-04-14T12:45:38.028Z,11.91
2019-04-14T12:48:08.111Z,11.90
2019-04-14T12:50:38.207Z,11.95
2019-04-14T12:53:06.434Z,11.98
2019-04-14T12:55:34.837Z,12.12
2019-04-14T12:58:04.705Z,11.96
2019-04-14T13:00:37.484Z,12.17
2019-04-14T13:03:05.710Z,12.20
2019-04-14T13:05:33.946Z,12.28
2019-04-14T13:08:02.402Z,12.36
2019-04-14T13:10:30.635Z,12.44
2019-04-14T13:12:58.858Z,12.44
2019-04-14T13:15:27.117Z,12.51
2019-04-14T13:17:55.557Z,12.44
2019-04-14T13:20:24.015Z,12.51
2019-04-14T13:22:52.249Z,12.37
2019-04-14T13:25:20.471Z,12.06
2019-04-14T13:27:50.051Z,12.14
2019-04-14T13:30:19.909Z,12.08
2019-04-14T13:32:48.142Z,12.01
2019-04-14T13:35:16.371Z,12.10
2019-04-14T13:37:44.860Z,12.20
2019-04-14T13:40:13.593Z,12.31
2019-04-14T13:42:41.835Z,12.52
2019-04-14T13:45:10.061Z,12.73
2019-04-14T13:47:38.303Z,12.57
2019-04-14T13:50:07.100Z,12.34
2019-04-14T13:52:46.086Z,12.28
2019-04-14T13:55:06.917Z,12.16
2019-04-14T13:57:35.379Z,11.97
2019-04-14T14:00:05.919Z,11.81
2019-04-14T14:02:34.149Z,11.72
2019-04-14T14:05:02.379Z,11.69
2019-04-14T14:07:30.618Z,11.54
2019-04-14T14:09:59.071Z,11.48
2019-04-14T14:12:28.951Z,11.44
2019-04-14T14:15:02.499Z,11.45
2019-04-14T14:17:44.069Z,11.46
2019-04-14T14:20:16.991Z,11.46
2019-04-14T14:22:59.095Z,11.44
2019-04-14T14:25:23.843Z,11.41
2019-04-14T14:27:52.315Z,11.52
2019-04-14T14:30:20.926Z,11.61
2019-04-14T14:32:49.369Z,11.59
2019-04-14T14:35:17.821Z,11.52
2019-04-14T14:37:46.065Z,11.36
2019-04-14T14:40:14.463Z,11.10
2019-04-14T14:42:42.995Z,10.92
2019-04-14T14:45:13.422Z,10.75
2019-04-14T14:47:43.317Z,10.63
2019-04-14T14:50:13.187Z,10.55
2019-04-14T14:52:41.613Z,10.50
2019-04-14T14:55:09.834Z,10.50
2019-04-14T14:57:38.057Z,10.58
2019-04-14T15:00:10.049Z,10.66
2019-04-14T15:02:38.290Z,10.75
2019-04-14T15:05:06.997Z,10.90
2019-04-14T15:07:35.232Z,11.13
2019-04-14T15:10:04.823Z,11.20
2019-04-14T15:12:33.243Z,11.17
2019-04-14T15:15:01.705Z,11.07
2019-04-14T15:17:30.173Z,10.88
2019-04-14T15:19:58.642Z,10.52
2019-04-14T15:22:26.871Z,10.58
2019-04-14T15:24:55.110Z,10.54
2019-04-14T15:27:23.632Z,10.50
2019-04-14T15:29:52.124Z,10.45
2019-04-14T15:32:20.336Z,10.48
2019-04-14T15:34:48.558Z,10.49
2019-04-14T15:37:16.788Z,10.46
2019-04-14T15:39:45.023Z,10.51
2019-04-14T15:42:13.251Z,10.51
2019-04-14T15:44:41.493Z,10.53
2019-04-14T15:47:09.724Z,10.64
2019-04-14T15:49:37.958Z,10.78
2019-04-14T15:52:06.409Z,10.74
2019-04-14T15:54:34.638Z,10.68
2019-04-14T15:57:20.517Z,10.64
2019-04-14T15:59:50.614Z,10.30
2019-04-14T16:02:21.156Z,10.23
2019-04-14T16:04:51.019Z,10.13
2019-04-14T16:07:32.909Z,10.06
2019-04-14T16:10:18.706Z,9.90
2019-04-14T16:12:54.864Z,9.61
2019-04-14T16:15:27.495Z,9.65
2019-04-14T16:18:00.474Z,9.67
2019-04-14T16:20:30.344Z,9.61
2019-04-14T16:22:58.789Z,9.56
2019-04-14T16:25:40.174Z,9.53
2019-04-14T16:28:19.041Z,9.48
2019-04-14T16:31:05.083Z,9.40
2019-04-14T16:33:35.170Z,9.31
2019-04-14T16:36:03.621Z,9.27
2019-04-14T16:38:31.846Z,9.20
2019-04-14T16:41:00.083Z,9.10
2019-04-14T16:43:28.528Z,9.03
2019-04-14T16:45:56.780Z,9.07
2019-04-14T16:48:25.039Z,9.10
2019-04-14T16:50:53.232Z,9.02
2019-04-14T16:53:25.801Z,9.00
2019-04-14T16:56:11.869Z,8.96
2019-04-14T16:58:41.947Z,8.75
2019-04-14T17:01:20.651Z,8.76
2019-04-14T17:03:49.104Z,8.68
2019-04-14T17:06:17.330Z,8.62
2019-04-14T17:08:45.572Z,8.59
2019-04-14T17:11:13.813Z,8.54
2019-04-14T17:13:43.902Z,8.48
2019-04-14T17:16:22.638Z,8.37
2019-04-14T17:18:58.643Z,8.41
2019-04-14T17:21:37.333Z,8.42
2019-04-14T17:24:19.060Z,8.42
2019-04-14T17:26:48.934Z,8.45
2019-04-14T17:29:30.595Z,8.43
2019-04-14T17:32:03.169Z,8.36
2019-04-14T17:34:33.029Z,8.36
2019-04-14T17:37:05.819Z,8.35
2019-04-14T17:39:47.397Z,8.27
2019-04-14T17:42:22.936Z,8.27
2019-04-14T17:44:52.812Z,8.27
2019-04-14T17:47:39.099Z,8.23
2019-04-14T17:50:39.780Z,8.22
2019-04-14T17:53:01.552Z,8.22
2019-04-14T17:55:49.704Z,8.23
2019-04-14T17:58:14.186Z,8.20
2019-04-14T18:00:44.278Z,8.17
2019-04-14T18:03:32.367Z,8.16
2019-04-14T18:06:13.927Z,8.09
2019-04-14T18:08:59.796Z,8.01
2019-04-14T18:11:45.236Z,7.97
2019-04-14T18:14:15.347Z,7.92
2019-04-14T18:17:03.295Z,7.85
2019-04-14T18:19:33.169Z,7.83
2019-04-14T18:22:01.685Z,7.81
2019-04-14T18:24:41.652Z,7.79
2019-04-14T18:27:00.099Z,7.74
2019-04-14T18:29:36.133Z,7.74
2019-04-14T18:32:12.401Z,7.71
2019-04-14T18:34:58.127Z,7.70
2019-04-14T18:37:30.445Z,7.73
2019-04-14T18:40:15.375Z,7.70
2019-04-14T18:42:45.548Z,7.67
2019-04-14T18:45:25.602Z,7.65
2019-04-14T18:47:55.719Z,7.61
2019-04-14T18:50:40.642Z,7.59
2019-04-14T18:53:22.927Z,7.58
2019-04-14T18:55:52.822Z,7.55
2019-04-14T18:58:37.721Z,7.51
2019-04-14T19:01:10.558Z,7.52
2019-04-14T19:03:38.910Z,7.52
2019-04-14T19:06:07.099Z,7.50
2019-04-14T19:08:35.408Z,7.45
2019-04-14T19:11:17.015Z,7.45
2019-04-14T19:13:46.843Z,7.42
2019-04-14T19:16:17.018Z,7.41
2019-04-14T19:18:46.955Z,7.37
2019-04-14T19:21:17.053Z,7.31
2019-04-14T19:23:46.705Z,7.28
2019-04-14T19:26:15.020Z,7.26
2019-04-14T19:28:43.254Z,7.21
2019-04-14T19:31:11.681Z,7.20
2019-04-14T19:33:40.178Z,7.23
2019-04-14T19:36:08.415Z,7.25
2019-04-14T19:38:36.642Z,7.18
2019-04-14T19:41:05.425Z,7.04
2019-04-14T19:43:33.661Z,7.22
2019-04-14T19:46:02.190Z,7.25
2019-04-14T19:48:30.646Z,7.26
2019-04-14T19:50:59.109Z,7.19
2019-04-14T19:53:27.561Z,7.15
2019-04-14T19:55:56.021Z,7.15
2019-04-14T19:58:24.250Z,7.13
2019-04-14T20:00:52.721Z,7.08
2019-04-14T20:03:21.167Z,7.02
2019-04-14T20:05:49.407Z,7.08
2019-04-14T20:08:17.869Z,7.01
2019-04-14T20:10:46.108Z,7.03
2019-04-14T20:13:14.335Z,7.03
2019-04-14T20:15:56.118Z,7.04
2019-04-14T20:18:25.987Z,6.97
2019-04-14T20:20:59.055Z,6.98
2019-04-14T20:23:37.690Z,6.98
2019-04-14T20:26:16.368Z,6.99
2019-04-14T20:28:46.225Z,6.93
2019-04-14T20:31:31.967Z,6.87
2019-04-14T20:34:00.508Z,6.86
2019-04-14T20:36:28.815Z,6.92
2019-04-14T20:38:57.069Z,6.89
2019-04-14T20:41:25.295Z,6.91
2019-04-14T20:43:53.538Z,6.87
2019-04-14T20:46:22.083Z,6.83
2019-04-14T20:48:50.757Z,6.88
2019-04-14T20:51:18.989Z,6.95
2019-04-14T20:53:47.517Z,6.97
2019-04-14T20:56:15.746Z,6.84
2019-04-14T20:58:43.982Z,6.92
2019-04-14T21:01:13.178Z,6.80
2019-04-14T21:03:48.519Z,6.85
2019-04-14T21:06:26.980Z,6.78
2019-04-14T21:08:56.850Z,6.91
2019-04-14T21:11:26.719Z,6.92
2019-04-14T21:14:02.237Z,6.91
2019-04-14T21:16:41.253Z,6.97
2019-04-14T21:19:22.940Z,6.92
2019-04-14T21:21:52.802Z,6.90
2019-04-14T21:24:34.427Z,6.83
2019-04-14T21:27:04.381Z,6.85
2019-04-14T21:29:50.420Z,6.88
2019-04-14T21:32:20.285Z,6.86
2019-04-14T21:34:52.931Z,6.84
2019-04-14T21:37:34.471Z,6.82
2019-04-14T21:40:22.912Z,6.76
2019-04-14T21:42:51.209Z,6.73
2019-04-14T21:45:19.442Z,6.70
2019-04-14T21:47:47.894Z,6.68
2019-04-14T21:50:16.300Z,6.66
2019-04-14T21:52:49.320Z,6.63
2019-04-14T21:55:16.139Z,6.63
2019-04-14T21:57:49.026Z,6.63
2019-04-14T22:00:35.418Z,6.66
2019-04-14T22:03:14.379Z,6.65
2019-04-14T22:05:46.916Z,6.66
2019-04-14T22:08:17.073Z,6.63
2019-04-14T22:10:55.495Z,6.61
2019-04-14T22:13:24.390Z,6.57
2019-04-14T22:15:53.300Z,6.53
2019-04-14T22:18:21.813Z,6.48
2019-04-14T22:20:50.052Z,6.49
2019-04-14T22:23:18.581Z,6.48
2019-04-14T22:25:46.846Z,6.49
2019-04-14T22:28:15.129Z,6.47
2019-04-14T22:30:43.438Z,6.47
2019-04-14T22:33:11.894Z,6.46
2019-04-14T22:35:40.531Z,6.46
2019-04-14T22:38:08.751Z,6.46
2019-04-14T22:40:37.279Z,6.47
2019-04-14T22:43:05.502Z,6.48
2019-04-14T22:45:33.882Z,6.48
2019-04-14T22:48:02.108Z,6.40
2019-04-14T22:50:30.346Z,6.45
2019-04-14T22:52:58.569Z,6.46
2019-04-14T22:55:26.905Z,6.48
2019-04-14T22:57:55.133Z,6.49
2019-04-14T23:00:41.823Z,6.45
2019-04-14T23:03:11.684Z,6.43
2019-04-14T23:05:49.962Z,6.39
2019-04-14T23:08:22.786Z,6.37
2019-04-14T23:11:01.331Z,6.36
2019-04-14T23:13:37.103Z,6.34
2019-04-14T23:16:07.269Z,6.35
2019-04-14T23:18:39.864Z,6.32
2019-04-14T23:21:15.988Z,6.30
2019-04-14T23:23:51.696Z,6.20
2019-04-14T23:26:19.938Z,6.25
2019-04-14T23:28:48.156Z,6.24
2019-04-14T23:31:16.384Z,6.25
2019-04-14T23:33:44.675Z,6.20
2019-04-14T23:36:13.077Z,6.21
2019-04-14T23:38:41.319Z,6.15
2019-04-14T23:41:09.538Z,6.10
2019-04-14T23:43:38.002Z,6.04
2019-04-14T23:46:06.230Z,5.97
2019-04-14T23:48:34.849Z,5.89
2019-04-14T23:51:03.085Z,5.80
2019-04-14T23:53:31.327Z,5.76
2019-04-14T23:55:59.889Z,5.68
2019-04-14T23:58:28.121Z,5.63
